Northfield Falls, VT (05664)

9:13 AM EST on December 06, 2016 (GMT -0500)
KVTBERLI2 | | Change Station

Elev 1220 ft 44.21 °N, 72.67 °W | Updated 6 seconds ago

Partly Cloudy
Partly Cloudy
30.4 °F
Feels Like 30 °F
N
2.2
Wind Variable Wind from NW
Gusts 4.5 mph

Today
High -- | Low -- °F
--% Chance of Precip.
Yesterday
High -- | Low -- °F
Precip. -- in
Pressure 30.18 in
Visibility 10.0 miles
Clouds Few 1200 ft
Windchill 30 °F
Dew Point 24 °F
Humidity 76%
Rainfall 0.00 in
Snow Depth Not available.
7:11 AM 4:12 PM
Waxing Crescent, 42% visible
METAR KMPV 061351Z AUTO 05004KT 10SM FEW012 M02/M03 A3013 RMK AO2 SLP220 T10221033 TSNO
Pressure 30.18 in
Visibility 10.0 miles
Clouds Few 1200 ft
Windchill 30 °F
Dew Point 24 °F
Humidity 76%
Rainfall 0.00 in
Snow Depth Not available.
7:11 AM 4:12 PM
Waxing Crescent, 42% visible
METAR KMPV 061351Z AUTO 05004KT 10SM FEW012 M02/M03 A3013 RMK AO2 SLP220 T10221033 TSNO

10-Day Weather Forecast

Almanac

Astronomy

Dec. 06, 2016 Rise Set
Actual Time
Civil Twilight
Nautical Twilight
Astronomical Twilight
Moon
Length of Visible Light
Length of Day
Tomorrow will be .
, % of the Moon is Illuminated

Today's Extremes

State Highs State Lows

Community

WunderPhotos

Upload Photos

1,955,949 photos uploaded!

WunderBlog® & News

Nearby

Air Quality

  Air Quality AQ Index Pollutant
Not available.

Snow Depth

Station Depth Elevation

Earthquake Activity

City Distance Mag. Time & Date
Minimum magnitude displayed is 2.5.

Coastal Water Temperatures

Place Temperature

Stations

Nearby Weather Stations

Station Location Temp. Windchill Dew Point Humidity Wind Precip. Elev Updated Type
                   

Watches & Warnings

There are currently no watches in effect.